createdAt,value
2022-08-17T00:01:52.012Z,59.53
2022-08-17T00:04:19.879Z,61.95
2022-08-17T00:06:48.649Z,59.95
2022-08-17T00:09:18.948Z,62.17
2022-08-17T00:12:34.882Z,63.75
2022-08-17T00:14:35.121Z,57.15
2022-08-17T00:17:03.722Z,57.10
2022-08-17T00:19:30.426Z,62.85
2022-08-17T00:22:33.653Z,61.90
2022-08-17T00:24:47.149Z,59.67
2022-08-17T00:27:13.689Z,64.45
2022-08-17T00:29:42.242Z,62.22
2022-08-17T00:33:13.956Z,62.03
2022-08-17T00:34:55.266Z,60.72
2022-08-17T00:37:21.811Z,61.28
2022-08-17T00:39:48.356Z,55.72
2022-08-17T00:42:15.686Z,65.10
2022-08-17T00:44:43.620Z,59.22
2022-08-17T00:47:10.174Z,61.80
2022-08-17T00:49:36.695Z,63.53
2022-08-17T00:52:11.711Z,61.15
2022-08-17T00:54:41.971Z,56.65
2022-08-17T00:57:11.156Z,56.50
2022-08-17T00:59:38.873Z,60.33
2022-08-17T01:02:08.701Z,60.33
2022-08-17T01:04:36.306Z,56.20
2022-08-17T01:07:03.406Z,56.42
2022-08-17T01:09:31.080Z,50.90
2022-08-17T01:11:57.572Z,52.70
2022-08-17T01:14:25.403Z,55.47
2022-08-17T01:16:54.160Z,53.97
2022-08-17T01:19:23.609Z,50.95
2022-08-17T01:21:51.844Z,49.97
2022-08-17T01:24:19.709Z,49.97
2022-08-17T01:26:47.193Z,52.70
2022-08-17T01:29:16.023Z,45.35
2022-08-17T01:31:46.325Z,43.95
2022-08-17T01:34:13.899Z,42.50
2022-08-17T01:36:42.341Z,41.63
2022-08-17T01:39:11.768Z,39.22
2022-08-17T01:41:40.960Z,40.63
2022-08-17T01:44:08.042Z,38.97
2022-08-17T01:46:35.555Z,37.15
2022-08-17T01:49:05.477Z,36.95
2022-08-17T01:51:32.935Z,37.45
2022-08-17T01:54:01.171Z,36.63
2022-08-17T01:56:28.663Z,33.13
2022-08-17T01:58:56.802Z,33.30
2022-08-17T02:01:24.825Z,35.42
2022-08-17T02:03:59.313Z,35.28
2022-08-17T02:06:28.952Z,35.92
2022-08-17T02:09:01.591Z,39.17
2022-08-17T02:11:30.040Z,48.97
2022-08-17T02:14:03.334Z,54.53
2022-08-17T02:16:36.917Z,58.45
2022-08-17T02:19:06.085Z,61.80
2022-08-17T02:21:32.699Z,57.95
2022-08-17T02:23:59.334Z,58.95
2022-08-17T02:26:26.257Z,57.33
2022-08-17T02:28:53.642Z,57.55
2022-08-17T02:31:21.646Z,56.83
2022-08-17T02:34:00.549Z,58.10
2022-08-17T02:36:31.127Z,56.17
2022-08-17T02:38:58.710Z,54.90
2022-08-17T02:41:25.304Z,55.58
2022-08-17T02:43:53.238Z,59.30
2022-08-17T02:46:21.099Z,57.92
2022-08-17T02:48:47.611Z,57.38
2022-08-17T02:51:14.282Z,55.33
2022-08-17T02:53:40.814Z,61.55
2022-08-17T02:56:07.308Z,59.58
2022-08-17T02:58:35.058Z,60.85
2022-08-17T03:01:03.506Z,61.42
2022-08-17T03:03:31.654Z,60.70
2022-08-17T03:05:58.198Z,59.47
2022-08-17T03:08:25.508Z,61.00
2022-08-17T03:10:52.309Z,58.88
2022-08-17T03:13:18.870Z,56.00
2022-08-17T03:15:46.201Z,52.88
2022-08-17T03:18:24.637Z,54.20
2022-08-17T03:20:54.541Z,52.08
2022-08-17T03:23:23.958Z,53.22
2022-08-17T03:25:52.948Z,56.22
2022-08-17T03:28:20.187Z,50.33
2022-08-17T03:30:46.743Z,50.05
2022-08-17T03:33:13.286Z,49.33
2022-08-17T03:35:40.517Z,44.78
2022-08-17T03:38:08.876Z,44.78
2022-08-17T03:40:58.569Z,42.67
2022-08-17T03:43:22.581Z,43.17
2022-08-17T03:46:10.095Z,42.63
2022-08-17T03:49:12.564Z,44.47
2022-08-17T03:51:57.912Z,42.35
2022-08-17T03:54:46.013Z,39.58
2022-08-17T03:57:12.626Z,42.13
2022-08-17T03:59:39.508Z,40.03
2022-08-17T04:02:09.707Z,42.35
2022-08-17T04:04:36.727Z,40.25
2022-08-17T04:07:03.387Z,38.70
2022-08-17T04:09:31.450Z,44.97
2022-08-17T04:12:01.222Z,44.40
2022-08-17T04:14:36.219Z,44.90
2022-08-17T04:17:18.920Z,45.03
2022-08-17T04:19:46.609Z,47.03
2022-08-17T04:22:31.377Z,45.47
2022-08-17T04:25:01.481Z,48.13
2022-08-17T04:27:28.036Z,48.55
2022-08-17T04:29:55.940Z,44.58
2022-08-17T04:33:00.497Z,49.42
2022-08-17T04:35:09.849Z,46.85
2022-08-17T04:37:36.336Z,46.05
2022-08-17T04:40:23.009Z,47.13
2022-08-17T04:43:00.895Z,48.10
2022-08-17T04:45:27.933Z,49.10
2022-08-17T04:47:58.994Z,46.70
2022-08-17T04:50:25.550Z,45.50
2022-08-17T04:52:52.120Z,47.47
2022-08-17T04:55:20.173Z,47.10
2022-08-17T04:57:46.687Z,43.70
2022-08-17T05:00:13.696Z,42.08
2022-08-17T05:02:49.809Z,44.00
2022-08-17T05:05:18.161Z,42.08
2022-08-17T05:07:44.671Z,37.33
2022-08-17T05:10:11.198Z,40.58
2022-08-17T05:12:39.056Z,39.05
2022-08-17T05:15:10.637Z,35.45
2022-08-17T05:17:37.182Z,38.15
2022-08-17T05:20:04.219Z,34.88
2022-08-17T05:22:31.346Z,36.22
2022-08-17T05:24:57.833Z,35.80
2022-08-17T05:27:24.488Z,32.08
2022-08-17T05:29:57.168Z,30.25
2022-08-17T05:32:39.362Z,30.27
2022-08-17T05:35:07.028Z,31.98
2022-08-17T05:37:33.599Z,31.65
2022-08-17T05:40:00.220Z,31.20
2022-08-17T05:42:26.934Z,29.38
2022-08-17T05:44:56.637Z,32.60
2022-08-17T05:47:24.966Z,33.17
2022-08-17T05:49:51.531Z,33.47
2022-08-17T05:52:25.363Z,34.13
2022-08-17T05:54:57.536Z,34.67
2022-08-17T05:57:39.608Z,32.80
2022-08-17T06:00:14.245Z,31.90
2022-08-17T06:02:50.810Z,33.05
2022-08-17T06:05:33.121Z,32.95
2022-08-17T06:08:02.583Z,36.88
2022-08-17T06:10:33.516Z,31.40
2022-08-17T06:13:05.418Z,30.58
2022-08-17T06:15:34.795Z,29.20
2022-08-17T06:18:04.586Z,34.75
2022-08-17T06:20:35.901Z,34.00
2022-08-17T06:23:04.429Z,31.90
2022-08-17T06:25:33.614Z,28.50
2022-08-17T06:28:03.148Z,23.48
2022-08-17T06:30:57.640Z,27.75
2022-08-17T06:33:20.898Z,29.63
2022-08-17T06:35:52.336Z,26.85
2022-08-17T06:38:37.675Z,27.45
2022-08-17T06:41:08.620Z,23.40
2022-08-17T06:43:47.810Z,24.40
2022-08-17T06:46:19.070Z,24.92
2022-08-17T06:48:49.202Z,22.85
2022-08-17T06:51:19.069Z,25.30
2022-08-17T06:53:48.340Z,22.20
2022-08-17T06:56:22.015Z,22.88
2022-08-17T06:58:49.573Z,24.48
2022-08-17T07:01:18.217Z,25.17
2022-08-17T07:03:47.631Z,22.83
2022-08-17T07:06:17.127Z,23.23
2022-08-17T07:08:53.115Z,22.48
2022-08-17T07:11:25.537Z,22.02
2022-08-17T07:13:57.453Z,20.98
2022-08-17T07:16:26.323Z,21.85
2022-08-17T07:18:53.653Z,20.48
2022-08-17T07:21:32.328Z,19.92
2022-08-17T07:24:03.339Z,20.10
2022-08-17T07:26:29.853Z,18.40
2022-08-17T07:28:56.733Z,20.33
2022-08-17T07:31:24.991Z,18.48
2022-08-17T07:34:06.852Z,20.23
2022-08-17T07:36:34.938Z,20.42
2022-08-17T07:39:02.098Z,16.52
2022-08-17T07:41:57.609Z,17.20
2022-08-17T07:44:16.058Z,17.88
2022-08-17T07:47:11.785Z,18.08
2022-08-17T07:49:40.105Z,17.77
2022-08-17T07:52:48.492Z,17.85
2022-08-17T07:54:56.377Z,17.67
2022-08-17T07:57:33.885Z,17.98
2022-08-17T08:00:06.085Z,18.40
2022-08-17T08:02:40.917Z,18.25
2022-08-17T08:05:12.971Z,18.35
2022-08-17T08:07:51.147Z,20.08
2022-08-17T08:10:27.676Z,17.25
2022-08-17T08:13:04.237Z,19.25
2022-08-17T08:15:34.894Z,17.33
2022-08-17T08:18:03.046Z,17.85
2022-08-17T08:20:42.455Z,17.38
2022-08-17T08:23:23.891Z,19.70
2022-08-17T08:25:53.626Z,18.05
2022-08-17T08:28:23.921Z,18.95
2022-08-17T08:30:53.609Z,16.25
2022-08-17T08:33:33.747Z,17.27
2022-08-17T08:36:05.439Z,16.25
2022-08-17T08:38:38.196Z,20.05
2022-08-17T08:41:11.742Z,16.65
2022-08-17T08:43:42.463Z,18.48
2022-08-17T08:46:15.977Z,17.10
2022-08-17T08:49:11.873Z,17.10
2022-08-17T08:51:46.559Z,20.17
2022-08-17T08:54:26.937Z,16.65
2022-08-17T08:57:22.842Z,15.88
2022-08-17T08:59:57.831Z,18.17
2022-08-17T09:02:34.882Z,15.93
2022-08-17T09:05:14.300Z,15.05
2022-08-17T09:07:45.515Z,14.82
2022-08-17T09:10:16.481Z,14.93
2022-08-17T09:12:48.674Z,15.05
2022-08-17T09:15:17.759Z,14.55
2022-08-17T09:17:47.172Z,13.77
2022-08-17T09:20:27.995Z,12.75
2022-08-17T09:22:58.171Z,14.93
2022-08-17T09:25:28.945Z,14.38
2022-08-17T09:28:00.547Z,12.25
2022-08-17T09:30:29.291Z,13.65
2022-08-17T09:32:57.887Z,11.70
2022-08-17T09:35:33.613Z,10.75
2022-08-17T09:38:06.195Z,10.57
2022-08-17T09:40:37.193Z,10.48
2022-08-17T09:43:06.417Z,10.43
2022-08-17T09:45:36.158Z,11.20
2022-08-17T09:48:05.839Z,10.35
2022-08-17T09:51:04.358Z,11.63
2022-08-17T09:53:22.878Z,10.52
2022-08-17T09:56:00.753Z,11.35
2022-08-17T09:58:30.754Z,13.30
2022-08-17T10:01:00.559Z,12.50
2022-08-17T10:03:34.369Z,11.45
2022-08-17T10:06:06.529Z,10.85
2022-08-17T10:08:36.674Z,11.80
2022-08-17T10:11:10.875Z,9.93
2022-08-17T10:13:52.770Z,10.80
2022-08-17T10:16:23.024Z,9.90
2022-08-17T10:18:54.351Z,11.85
2022-08-17T10:21:40.733Z,10.15
2022-08-17T10:24:28.765Z,12.38
2022-08-17T10:26:58.040Z,16.00
2022-08-17T10:29:28.920Z,14.82
2022-08-17T10:32:00.604Z,15.13
2022-08-17T10:34:41.244Z,16.52
2022-08-17T10:37:15.229Z,15.90
2022-08-17T10:39:52.169Z,17.00
2022-08-17T10:42:30.380Z,18.98
2022-08-17T10:45:02.332Z,18.63
2022-08-17T10:47:55.387Z,21.17
2022-08-17T10:50:42.628Z,17.63
2022-08-17T10:53:09.709Z,19.55
2022-08-17T10:55:36.302Z,20.73
2022-08-17T10:58:21.085Z,22.23
2022-08-17T11:00:57.578Z,22.05
2022-08-17T11:03:25.089Z,21.95
2022-08-17T11:05:55.726Z,24.50
2022-08-17T11:08:37.701Z,22.15
2022-08-17T11:11:14.908Z,23.27
2022-08-17T11:13:48.457Z,22.02
2022-08-17T11:16:32.931Z,24.02
2022-08-17T11:19:32.688Z,19.88
2022-08-17T11:22:16.683Z,21.00
2022-08-17T11:24:48.064Z,19.33
2022-08-17T11:27:22.462Z,21.05
2022-08-17T11:29:56.809Z,19.00
2022-08-17T11:32:29.580Z,22.58
2022-08-17T11:35:06.050Z,21.92
2022-08-17T11:37:41.725Z,20.05
2022-08-17T11:40:16.816Z,20.52
2022-08-17T11:45:32.242Z,21.15
2022-08-17T11:48:28.441Z,20.08
2022-08-17T11:51:17.550Z,20.50
2022-08-17T11:54:21.381Z,22.45
2022-08-17T11:56:47.417Z,20.20
2022-08-17T11:59:46.044Z,20.67
2022-08-17T12:02:32.743Z,21.23
2022-08-17T12:05:04.479Z,20.55
2022-08-17T12:07:41.741Z,21.83
2022-08-17T12:10:08.621Z,23.75
2022-08-17T12:12:35.962Z,27.05
2022-08-17T12:15:12.582Z,22.83
2022-08-17T12:17:42.968Z,26.65
2022-08-17T12:20:12.421Z,24.58
2022-08-17T12:22:45.164Z,23.00
2022-08-17T12:25:13.680Z,17.58
2022-08-17T12:28:05.712Z,16.25
2022-08-17T12:30:31.275Z,17.55
2022-08-17T12:32:59.211Z,18.45
2022-08-17T12:35:33.061Z,17.63
2022-08-17T12:37:59.797Z,17.60
2022-08-17T12:40:27.393Z,17.55
2022-08-17T12:42:55.053Z,17.65
2022-08-17T12:45:23.399Z,20.45
2022-08-17T12:47:59.477Z,17.83
2022-08-17T12:50:29.499Z,18.85
2022-08-17T12:53:01.712Z,17.70
2022-08-17T12:55:33.743Z,19.65
2022-08-17T12:58:01.772Z,18.75
2022-08-17T13:00:31.164Z,22.70
2022-08-17T13:02:59.228Z,18.55
2022-08-17T13:05:28.591Z,19.83
2022-08-17T13:07:55.577Z,18.67
2022-08-17T13:10:30.055Z,18.23
2022-08-17T13:13:03.750Z,20.10
2022-08-17T13:15:32.410Z,18.40
2022-08-17T13:18:04.260Z,19.05
2022-08-17T13:20:32.231Z,20.73
2022-08-17T13:22:59.746Z,21.73
2022-08-17T13:25:26.812Z,21.15
2022-08-17T13:27:54.393Z,23.05
2022-08-17T13:30:23.834Z,21.23
2022-08-17T13:32:50.546Z,24.73
2022-08-17T13:35:41.397Z,21.17
2022-08-17T13:38:12.400Z,20.00
2022-08-17T13:40:41.743Z,21.27
2022-08-17T13:43:08.912Z,20.25
2022-08-17T13:45:38.765Z,21.08
2022-08-17T13:48:11.975Z,21.98
2022-08-17T13:50:41.338Z,23.48
2022-08-17T13:53:16.939Z,20.90
2022-08-17T13:55:47.396Z,22.20
2022-08-17T13:58:19.325Z,21.35
2022-08-17T14:00:45.913Z,21.15
2022-08-17T14:03:12.541Z,20.08
2022-08-17T14:05:39.347Z,23.20
2022-08-17T14:08:06.794Z,20.95
2022-08-17T14:10:36.674Z,22.10
2022-08-17T14:13:03.717Z,21.50
2022-08-17T14:15:54.615Z,22.08
2022-08-17T14:18:31.155Z,23.05
2022-08-17T14:21:08.346Z,21.52
2022-08-17T14:23:35.144Z,22.70
2022-08-17T14:26:03.359Z,22.08
2022-08-17T14:28:29.866Z,22.70
2022-08-17T14:30:56.398Z,23.35
2022-08-17T14:33:24.699Z,24.05
2022-08-17T14:35:52.785Z,24.08
2022-08-17T14:38:19.331Z,22.88
2022-08-17T14:40:45.941Z,23.80
2022-08-17T14:43:15.703Z,23.67
2022-08-17T14:45:42.335Z,22.00
2022-08-17T14:48:09.355Z,24.70
2022-08-17T14:50:37.488Z,24.38
2022-08-17T14:53:04.603Z,23.83
2022-08-17T14:55:32.466Z,25.02
2022-08-17T14:57:59.052Z,25.08
2022-08-17T15:00:26.958Z,26.08
2022-08-17T15:02:58.329Z,28.25
2022-08-17T15:05:26.552Z,34.65
2022-08-17T15:07:53.617Z,28.67
2022-08-17T15:10:20.532Z,26.77
2022-08-17T15:12:47.016Z,26.23
2022-08-17T15:15:14.548Z,25.80
2022-08-17T15:17:43.831Z,26.27
2022-08-17T15:20:15.115Z,27.00
2022-08-17T15:22:43.961Z,28.73
2022-08-17T15:25:11.118Z,29.80
2022-08-17T15:27:37.616Z,27.42
2022-08-17T15:30:05.724Z,29.98
2022-08-17T15:32:35.153Z,31.73
2022-08-17T15:35:04.217Z,32.38
2022-08-17T15:37:32.065Z,31.30
2022-08-17T15:40:00.736Z,29.92
2022-08-17T15:42:27.834Z,31.45
2022-08-17T15:44:57.171Z,32.08
2022-08-17T15:47:24.048Z,30.75
2022-08-17T15:49:50.926Z,30.55
2022-08-17T15:52:19.696Z,32.55
2022-08-17T15:54:49.353Z,29.23
2022-08-17T15:57:16.418Z,29.02
2022-08-17T15:59:44.509Z,30.73
2022-08-17T16:03:13.739Z,27.15
2022-08-17T16:05:03.383Z,28.73
2022-08-17T16:07:31.818Z,28.70
2022-08-17T16:09:58.340Z,29.52
2022-08-17T16:12:25.309Z,29.10
2022-08-17T16:14:53.368Z,31.90
2022-08-17T16:17:39.602Z,31.38
2022-08-17T16:20:06.914Z,30.27
2022-08-17T16:22:36.076Z,27.67
2022-08-17T16:25:03.299Z,30.77
2022-08-17T16:27:29.858Z,28.55
2022-08-17T16:29:56.436Z,31.95
2022-08-17T16:32:31.893Z,31.17
2022-08-17T16:35:01.581Z,29.55
2022-08-17T16:37:29.399Z,29.98
2022-08-17T16:39:57.353Z,31.80
2022-08-17T16:42:24.794Z,33.03
2022-08-17T16:44:51.699Z,31.83
2022-08-17T16:47:19.471Z,31.70
2022-08-17T16:49:46.496Z,33.13
2022-08-17T16:52:14.281Z,32.63
2022-08-17T16:55:00.945Z,32.80
2022-08-17T16:57:27.646Z,33.78
2022-08-17T16:59:54.336Z,32.45
2022-08-17T17:02:25.456Z,32.75
2022-08-17T17:04:53.654Z,34.03
2022-08-17T17:07:25.724Z,33.38
2022-08-17T17:09:55.413Z,35.25
2022-08-17T17:13:02.807Z,33.72
2022-08-17T17:15:11.371Z,33.70
2022-08-17T17:17:38.681Z,33.58
2022-08-17T17:20:07.883Z,33.17
2022-08-17T17:22:38.165Z,34.00
2022-08-17T17:25:07.823Z,36.30
2022-08-17T17:27:41.041Z,35.97
2022-08-17T17:30:09.589Z,35.25
2022-08-17T17:32:39.192Z,34.58
2022-08-17T17:35:09.944Z,36.30
2022-08-17T17:37:37.917Z,35.97
2022-08-17T17:40:07.506Z,35.35
2022-08-17T17:42:34.123Z,36.17
2022-08-17T17:45:06.850Z,37.10
2022-08-17T17:47:33.973Z,36.53
2022-08-17T17:50:01.533Z,34.03
2022-08-17T17:52:36.282Z,33.05
2022-08-17T17:55:06.326Z,33.50
2022-08-17T17:57:45.096Z,34.42
2022-08-17T18:00:15.202Z,36.10
2022-08-17T18:02:51.603Z,32.25
2022-08-17T18:05:28.392Z,35.75
2022-08-17T18:07:59.455Z,33.00
2022-08-17T18:10:30.515Z,36.17
2022-08-17T18:13:05.376Z,35.17
2022-08-17T18:15:36.311Z,34.55
2022-08-17T18:18:17.664Z,34.38
2022-08-17T18:20:53.651Z,33.97
2022-08-17T18:23:28.082Z,31.98
2022-08-17T18:25:55.188Z,40.08
2022-08-17T18:28:25.162Z,36.95
2022-08-17T18:31:13.022Z,37.85
2022-08-17T18:33:41.087Z,36.75
2022-08-17T18:36:07.846Z,35.85
2022-08-17T18:38:35.668Z,40.47
2022-08-17T18:41:04.106Z,35.85
2022-08-17T18:43:44.008Z,39.80
2022-08-17T18:46:28.336Z,37.95
2022-08-17T18:48:59.244Z,40.85
2022-08-17T18:51:41.514Z,40.58
2022-08-17T18:54:14.377Z,36.67
2022-08-17T18:56:41.685Z,36.72
2022-08-17T18:59:10.921Z,40.88
2022-08-17T19:01:54.501Z,40.10
2022-08-17T19:04:30.484Z,38.03
2022-08-17T19:07:13.014Z,39.65
2022-08-17T19:09:43.068Z,41.60
2022-08-17T19:12:13.482Z,39.45
2022-08-17T19:14:40.158Z,41.83
2022-08-17T19:17:10.763Z,41.97
2022-08-17T19:19:40.543Z,43.38
2022-08-17T19:22:11.265Z,42.83
2022-08-17T19:24:47.477Z,41.65
2022-08-17T19:27:17.823Z,43.28
2022-08-17T19:29:48.269Z,43.83
2022-08-17T19:32:18.107Z,43.40
2022-08-17T19:34:44.805Z,47.10
2022-08-17T19:37:14.142Z,46.05
2022-08-17T19:39:42.798Z,46.53
2022-08-17T19:42:12.867Z,50.05
2022-08-17T19:44:46.449Z,46.50
2022-08-17T19:47:19.609Z,49.40
2022-08-17T19:50:02.409Z,47.53
2022-08-17T19:52:37.694Z,49.33
2022-08-17T19:55:07.961Z,49.45
2022-08-17T19:57:39.225Z,48.17
2022-08-17T20:00:11.225Z,51.42
2022-08-17T20:02:41.451Z,50.25
2022-08-17T20:05:12.812Z,49.90
2022-08-17T20:07:42.658Z,44.47
2022-08-17T20:10:12.338Z,43.42
2022-08-17T20:12:40.038Z,41.25
2022-08-17T20:15:08.407Z,46.58
2022-08-17T20:17:37.216Z,41.80
2022-08-17T20:20:07.567Z,40.58
2022-08-17T20:22:52.501Z,41.63
2022-08-17T20:25:30.275Z,39.90
2022-08-17T20:28:05.943Z,39.83
2022-08-17T20:30:34.969Z,41.22
2022-08-17T20:33:02.447Z,38.53
2022-08-17T20:35:30.415Z,39.33
2022-08-17T20:38:02.127Z,37.70
2022-08-17T20:40:30.740Z,37.17
2022-08-17T20:42:58.215Z,39.78
2022-08-17T20:45:43.053Z,41.05
2022-08-17T20:51:11.677Z,39.90
2022-08-17T20:53:55.697Z,40.90
2022-08-17T20:56:40.772Z,38.90
2022-08-17T20:59:08.818Z,40.65
2022-08-17T21:01:37.437Z,42.95
2022-08-17T21:04:06.173Z,38.15
2022-08-17T21:06:32.637Z,42.08
2022-08-17T21:09:19.164Z,40.80
2022-08-17T21:12:03.949Z,38.08
2022-08-17T21:14:36.493Z,41.45
2022-08-17T21:17:12.414Z,41.47
2022-08-17T21:20:07.629Z,45.00
2022-08-17T21:22:40.627Z,40.50
2022-08-17T21:25:13.625Z,39.60
2022-08-17T21:27:47.714Z,38.55
2022-08-17T21:30:31.890Z,40.10
2022-08-17T21:33:10.197Z,39.63
2022-08-17T21:35:47.909Z,42.97
2022-08-17T21:38:15.152Z,43.15
2022-08-17T21:40:44.295Z,43.03
2022-08-17T21:43:23.419Z,41.22
2022-08-17T21:45:55.396Z,35.65
2022-08-17T21:48:24.524Z,44.03
2022-08-17T21:50:57.775Z,39.75
2022-08-17T21:53:32.885Z,38.28
2022-08-17T21:56:00.337Z,42.80
2022-08-17T21:58:31.710Z,45.65
2022-08-17T22:01:11.869Z,42.65
2022-08-17T22:03:38.737Z,42.13
2022-08-17T22:06:18.393Z,46.85
2022-08-17T22:08:56.785Z,47.45
2022-08-17T22:11:23.265Z,46.85
2022-08-17T22:13:51.421Z,46.33
2022-08-17T22:16:29.410Z,44.45
2022-08-17T22:18:58.056Z,44.95
2022-08-17T22:21:25.219Z,45.92
2022-08-17T22:24:06.200Z,44.13
2022-08-17T22:26:51.306Z,41.60
2022-08-17T22:29:32.792Z,42.95
2022-08-17T22:32:00.664Z,41.45
2022-08-17T22:34:27.168Z,41.33
2022-08-17T22:37:08.526Z,44.35
2022-08-17T22:39:40.372Z,42.58
2022-08-17T22:42:12.599Z,43.50
2022-08-17T22:44:46.849Z,38.45
2022-08-17T22:47:29.373Z,41.92
2022-08-17T22:49:57.906Z,41.60
2022-08-17T22:52:33.071Z,40.83
2022-08-17T22:55:20.248Z,38.30
2022-08-17T22:58:05.910Z,35.53
2022-08-17T23:03:09.086Z,35.67
2022-08-17T23:05:36.278Z,36.53
2022-08-17T23:08:03.523Z,35.95
2022-08-17T23:10:30.079Z,36.78
2022-08-17T23:12:59.724Z,32.50
2022-08-17T23:15:33.182Z,36.42
2022-08-17T23:18:04.774Z,37.00
2022-08-17T23:20:33.581Z,33.22
2022-08-17T23:23:00.589Z,35.80
2022-08-17T23:25:28.233Z,36.00
2022-08-17T23:27:55.247Z,33.97
2022-08-17T23:30:24.922Z,34.75
2022-08-17T23:32:53.788Z,40.70
2022-08-17T23:35:20.773Z,33.90
2022-08-17T23:38:08.688Z,33.05
2022-08-17T23:40:35.260Z,35.67
2022-08-17T23:43:05.861Z,35.00
2022-08-17T23:45:36.382Z,35.20
2022-08-17T23:48:06.603Z,34.95
2022-08-17T23:50:33.543Z,36.05
2022-08-17T23:53:00.125Z,34.28
2022-08-17T23:55:28.715Z,31.63
2022-08-17T23:57:55.217Z,33.17
